Avoca, Michigan
Current Conditions -  °F | °C
As of 1:56 PM on Monday 20 Oct 2014 (Local Time) from KPHN Reporting Station
Overcast Overcast  
Wind Chill: 52°   Ceiling: 4900
Heat Index: 52°   Visibility: 10mi
Dew Point: 48°   Wind: 0mph
Humidity: 88%   Direction: NA
Pressure: 29.79"   Gusts: NA
Location:  43.06°N, 82.69°W
Report Text: KPHN 201756Z AUTO 00000KT 10SM OVC049 11/09 A2979 RMK AO2
Loading
Personal Weather Stations






























Interactive Weather Map New forecast layout! Learn more

10-Day Weather Forecast

Advertisements
Track Severe Weather on mobile